createdAt,value
2022-12-12T00:00:27.787Z,6.60
2022-12-12T00:05:51.529Z,7.80
2022-12-12T00:11:14.189Z,6.95
2022-12-12T00:16:37.056Z,6.50
2022-12-12T00:21:59.649Z,5.58
2022-12-12T00:27:22.471Z,6.35
2022-12-12T00:32:44.736Z,5.47
2022-12-12T00:38:07.062Z,5.12
2022-12-12T00:43:29.605Z,5.95
2022-12-12T00:48:51.954Z,4.93
2022-12-12T00:54:14.591Z,4.83
2022-12-12T00:59:36.860Z,4.50
2022-12-12T01:04:59.196Z,4.00
2022-12-12T01:10:23.003Z,4.30
2022-12-12T01:15:45.516Z,3.90
2022-12-12T01:21:07.977Z,4.50
2022-12-12T01:26:33.953Z,3.52
2022-12-12T01:31:56.134Z,3.85
2022-12-12T01:37:18.414Z,3.60
2022-12-12T01:42:41.865Z,3.40
2022-12-12T01:48:05.565Z,2.98
2022-12-12T01:53:30.085Z,3.42
2022-12-12T01:58:54.672Z,3.50
2022-12-12T02:04:19.631Z,4.30
2022-12-12T02:09:44.972Z,3.70
2022-12-12T02:15:08.425Z,3.72
2022-12-12T02:20:44.540Z,3.83
2022-12-12T02:26:49.380Z,3.25
2022-12-12T02:32:20.107Z,3.30
2022-12-12T02:37:50.305Z,3.33
2022-12-12T02:43:26.944Z,2.95
2022-12-12T02:49:19.225Z,2.62
2022-12-12T02:54:42.176Z,3.27
2022-12-12T03:00:15.649Z,4.05
2022-12-12T03:06:05.814Z,4.20
2022-12-12T03:18:03.539Z,4.50
2022-12-12T03:23:30.698Z,3.87
2022-12-12T03:28:57.764Z,4.00
2022-12-12T03:34:33.302Z,4.27
2022-12-12T03:40:05.013Z,3.90
2022-12-12T03:45:49.541Z,4.03
2022-12-12T03:51:31.961Z,3.37
2022-12-12T03:57:05.008Z,3.50
2022-12-12T04:02:52.076Z,3.80
2022-12-12T04:08:23.559Z,3.70
2022-12-12T04:14:05.642Z,3.47
2022-12-12T04:19:56.682Z,3.80
2022-12-12T04:25:25.456Z,2.90
2022-12-12T04:30:50.442Z,3.50
2022-12-12T04:36:15.290Z,2.67
2022-12-12T04:41:41.910Z,3.13
2022-12-12T04:47:07.453Z,3.20
2022-12-12T04:52:32.767Z,3.17
2022-12-12T04:57:59.692Z,2.47
2022-12-12T05:03:48.722Z,3.03
2022-12-12T05:09:14.337Z,3.30
2022-12-12T05:14:37.759Z,2.70
2022-12-12T05:19:59.948Z,2.93
2022-12-12T05:25:22.651Z,2.83
2022-12-12T05:30:45.461Z,2.50
2022-12-12T05:36:07.672Z,2.87
2022-12-12T05:41:30.084Z,2.65
2022-12-12T05:46:52.404Z,2.97
2022-12-12T05:52:14.613Z,3.10
2022-12-12T05:57:37.387Z,3.37
2022-12-12T06:03:00.112Z,2.90
2022-12-12T06:08:25.214Z,2.93
2022-12-12T06:13:47.509Z,3.37
2022-12-12T06:19:10.949Z,3.08
2022-12-12T06:24:33.717Z,2.90
2022-12-12T06:29:55.882Z,3.07
2022-12-12T06:35:18.522Z,3.13
2022-12-12T06:40:41.568Z,3.00
2022-12-12T06:46:05.512Z,2.95
2022-12-12T06:51:35.977Z,2.92
2022-12-12T06:56:58.628Z,2.75
2022-12-12T07:02:29.276Z,2.62
2022-12-12T07:07:47.135Z,2.50
2022-12-12T07:13:09.489Z,2.77
2022-12-12T07:18:33.060Z,2.70
2022-12-12T07:23:55.299Z,2.85
2022-12-12T07:29:19.113Z,2.67
2022-12-12T07:34:43.745Z,2.73
2022-12-12T07:40:08.694Z,2.52
2022-12-12T07:45:33.190Z,3.30
2022-12-12T07:50:58.192Z,2.85
2022-12-12T07:56:25.463Z,3.22
2022-12-12T08:01:50.138Z,3.10
2022-12-12T08:07:15.527Z,2.67
2022-12-12T08:12:41.541Z,2.42
2022-12-12T08:18:06.264Z,2.70
2022-12-12T08:23:31.493Z,2.87
2022-12-12T08:28:55.647Z,2.98
2022-12-12T08:34:19.790Z,2.85
2022-12-12T08:39:44.575Z,2.15
2022-12-12T08:45:09.842Z,2.13
2022-12-12T08:50:33.814Z,2.43
2022-12-12T08:55:59.259Z,2.67
2022-12-12T09:01:25.610Z,1.82
2022-12-12T09:06:48.909Z,2.47
2022-12-12T09:12:13.152Z,2.20
2022-12-12T09:17:37.825Z,2.53
2022-12-12T09:23:02.324Z,2.30
2022-12-12T09:28:27.700Z,2.33
2022-12-12T09:33:52.998Z,2.47
2022-12-12T09:39:17.414Z,2.53
2022-12-12T09:44:42.121Z,2.27
2022-12-12T09:50:14.582Z,2.37
2022-12-12T09:56:17.722Z,2.43
2022-12-12T10:02:01.772Z,2.43
2022-12-12T10:07:58.442Z,2.03
2022-12-12T10:13:37.173Z,2.67
2022-12-12T10:19:05.612Z,2.27
2022-12-12T10:24:48.886Z,2.63
2022-12-12T10:30:22.924Z,2.70
2022-12-12T10:35:57.780Z,2.63
2022-12-12T10:41:30.128Z,3.30
2022-12-12T10:47:02.268Z,3.17
2022-12-12T10:52:40.773Z,2.70
2022-12-12T10:58:17.036Z,3.25
2022-12-12T11:03:54.520Z,3.35
2022-12-12T11:09:23.405Z,4.03
2022-12-12T11:14:57.323Z,2.23
2022-12-12T11:20:25.233Z,3.47
2022-12-12T11:25:51.044Z,3.43
2022-12-12T11:31:21.618Z,3.40
2022-12-12T11:36:54.810Z,3.20
2022-12-12T11:42:35.297Z,3.17
2022-12-12T11:48:02.317Z,3.70
2022-12-12T11:53:28.610Z,3.58
2022-12-12T11:59:07.272Z,2.90
2022-12-12T12:04:58.452Z,2.87
2022-12-12T12:10:54.443Z,3.60
2022-12-12T12:16:41.705Z,3.40
2022-12-12T12:22:11.018Z,3.20
2022-12-12T12:27:57.537Z,1.83
2022-12-12T12:33:44.988Z,4.30
2022-12-12T12:39:28.836Z,3.27
2022-12-12T12:45:16.300Z,2.65
2022-12-12T12:50:45.836Z,2.97
2022-12-12T13:01:58.310Z,3.20
2022-12-12T13:07:39.111Z,2.70
2022-12-12T13:13:27.983Z,2.97
2022-12-12T13:18:55.664Z,2.80
2022-12-12T13:24:34.450Z,3.70
2022-12-12T13:30:09.103Z,3.30
2022-12-12T13:35:56.937Z,2.83
2022-12-12T13:41:25.959Z,2.83
2022-12-12T13:46:56.931Z,2.60
2022-12-12T13:52:43.175Z,3.33
2022-12-12T13:58:41.616Z,3.17
2022-12-12T14:04:07.270Z,3.43
2022-12-12T14:09:47.914Z,3.30
2022-12-12T14:15:16.171Z,4.00
2022-12-12T14:21:03.980Z,4.10
2022-12-12T14:26:50.536Z,3.85
2022-12-12T14:32:39.821Z,3.97
2022-12-12T14:38:18.071Z,4.08
2022-12-12T14:43:47.065Z,3.62
2022-12-12T14:49:27.766Z,3.50
2022-12-12T14:54:53.146Z,4.22
2022-12-12T15:00:24.983Z,4.50
2022-12-12T15:05:48.572Z,4.50
2022-12-12T15:11:22.708Z,5.20
2022-12-12T15:16:50.587Z,4.42
2022-12-12T15:22:19.301Z,5.33
2022-12-12T15:27:52.336Z,4.42
2022-12-12T15:33:15.491Z,4.87
2022-12-12T15:38:40.537Z,5.28
2022-12-12T15:44:04.536Z,5.60
2022-12-12T15:49:51.174Z,5.70
2022-12-12T15:55:27.735Z,5.50
2022-12-12T16:00:58.626Z,5.77
2022-12-12T16:06:32.038Z,5.17
2022-12-12T16:12:03.391Z,5.50
2022-12-12T16:17:39.425Z,5.65
2022-12-12T16:23:16.715Z,4.70
2022-12-12T16:28:43.096Z,4.77
2022-12-12T16:34:09.284Z,4.60
2022-12-12T16:39:33.524Z,5.37
2022-12-12T16:44:56.355Z,4.72
2022-12-12T16:50:20.345Z,4.85
2022-12-12T16:55:43.988Z,5.70
2022-12-12T17:01:06.616Z,4.37
2022-12-12T17:06:28.883Z,4.63
2022-12-12T17:11:52.115Z,4.90
2022-12-12T17:17:14.369Z,5.47
2022-12-12T17:22:38.829Z,4.95
2022-12-12T17:28:04.890Z,4.83
2022-12-12T17:33:28.398Z,4.95
2022-12-12T17:38:52.671Z,5.70
2022-12-12T17:44:16.442Z,5.20
2022-12-12T17:49:40.855Z,4.70
2022-12-12T17:55:54.330Z,4.50
2022-12-12T18:00:31.431Z,4.80
2022-12-12T18:05:54.591Z,4.10
2022-12-12T18:11:25.089Z,4.80
2022-12-12T18:16:53.758Z,4.37
2022-12-12T18:22:16.730Z,4.78
2022-12-12T18:27:40.770Z,4.53
2022-12-12T18:33:03.424Z,4.67
2022-12-12T18:38:25.819Z,5.00
2022-12-12T18:43:49.680Z,5.17
2022-12-12T18:49:14.610Z,5.55
2022-12-12T18:54:36.830Z,6.60
2022-12-12T18:59:59.603Z,5.20
2022-12-12T19:05:23.796Z,6.00
2022-12-12T19:10:47.843Z,6.00
2022-12-12T19:16:16.205Z,5.75
2022-12-12T19:21:40.898Z,6.30
2022-12-12T19:27:03.829Z,6.22
2022-12-12T19:32:26.585Z,5.70
2022-12-12T19:37:48.849Z,6.28
2022-12-12T19:43:11.583Z,6.07
2022-12-12T19:48:34.169Z,5.63
2022-12-12T19:54:00.455Z,5.70
2022-12-12T19:59:27.439Z,5.33
2022-12-12T20:04:49.915Z,5.30
2022-12-12T20:10:13.729Z,5.55
2022-12-12T20:15:36.988Z,5.55
2022-12-12T20:26:37.475Z,5.70
2022-12-12T20:32:02.459Z,5.83
2022-12-12T20:37:24.750Z,5.23
2022-12-12T20:42:54.118Z,4.97
2022-12-12T20:48:10.982Z,5.17
2022-12-12T20:53:36.377Z,4.80
2022-12-12T20:59:01.558Z,5.47
2022-12-12T21:04:26.222Z,5.25
2022-12-12T21:09:48.484Z,6.15
2022-12-12T21:15:12.489Z,5.87
2022-12-12T21:20:35.325Z,5.00
2022-12-12T21:25:57.587Z,5.60
2022-12-12T21:31:29.495Z,5.92
2022-12-12T21:36:52.309Z,5.17
2022-12-12T21:42:15.043Z,5.20
2022-12-12T21:47:37.646Z,5.37
2022-12-12T21:53:17.661Z,4.53
2022-12-12T22:03:57.156Z,4.58
2022-12-12T22:09:21.307Z,5.67
2022-12-12T22:14:44.687Z,5.95
2022-12-12T22:20:07.106Z,6.03
2022-12-12T22:25:29.481Z,4.57
2022-12-12T22:30:51.672Z,4.47
2022-12-12T22:36:21.087Z,4.75
2022-12-12T22:41:43.447Z,5.10
2022-12-12T22:47:07.877Z,4.90
2022-12-12T22:52:30.203Z,4.50
2022-12-12T22:57:52.366Z,4.27
2022-12-12T23:03:14.544Z,4.50
2022-12-12T23:08:36.856Z,4.20
2022-12-12T23:14:04.249Z,4.87
2022-12-12T23:19:30.156Z,5.10
2022-12-12T23:24:52.368Z,4.97
2022-12-12T23:30:15.266Z,4.47
2022-12-12T23:35:37.443Z,4.30
2022-12-12T23:41:00.451Z,4.63
2022-12-12T23:46:34.671Z,4.55
2022-12-12T23:52:06.380Z,5.53
2022-12-12T23:57:29.118Z,4.80
